Time;durP1;ratioP1;P1;durP2;ratioP2;P2;SDS_P1;SDS_P2;PMS_P1;PMS_P2;Temp;Humidity;BMP_temperature;BMP_pressure;BME280_temperature;BME280_humidity;BME280_pressure;Samples;Min_cycle;Max_cycle;Signal;HPM_P1;HPM_P2
2022/07/04 00:00:22;;;;;;;9.25;6.47;;;;;;;18.04;60.44;100219.22;30874056;28;97342;-76
2022/07/04 00:15:22;;;;;;;9.20;7.07;;;;;;;17.67;61.85;100202.84;30872596;28;96755;-76
2022/07/04 00:30:23;;;;;;;10.73;7.22;;;;;;;17.46;62.84;100220.19;30869861;28;96776;-73
2022/07/04 00:45:23;;;;;;;8.57;7.05;;;;;;;17.31;63.72;100198.91;30869461;28;97436;-74
2022/07/04 01:00:24;;;;;;;10.77;7.40;;;;;;;17.08;64.63;100184.09;30867324;28;96760;-65
2022/07/04 01:15:25;;;;;;;12.93;7.60;;;;;;;16.78;65.43;100181.88;30866399;28;97054;-61
2022/07/04 01:30:26;;;;;;;10.00;7.20;;;;;;;16.59;66.51;100164.75;30864116;28;96762;-76
2022/07/04 01:45:26;;;;;;;9.63;8.40;;;;;;;16.48;67.13;100155.47;30863730;28;97393;-60
2022/07/04 02:15:46;;;;;;;10.53;8.23;;;;;;;16.06;68.85;100133.41;30855255;28;96849;-64
2022/07/04 02:30:46;;;;;;;12.50;9.15;;;;;;;15.83;69.96;100123.09;30859165;28;96773;-76
2022/07/04 02:45:47;;;;;;;12.40;9.63;;;;;;;15.67;70.44;100154.66;30857059;28;96710;-65
2022/07/04 03:00:47;;;;;;;12.48;9.43;;;;;;;15.67;71.40;100159.19;30856267;28;97451;-61
2022/07/04 03:15:48;;;;;;;10.40;9.27;;;;;;;15.67;71.50;100154.66;30854644;28;96676;-61
2022/07/04 03:30:48;;;;;;;13.05;9.98;;;;;;;15.76;71.54;100162.50;30852849;28;96716;-61
2022/07/04 03:45:48;;;;;;;11.38;8.80;;;;;;;16.10;71.71;100158.81;30852699;28;96833;-62
2022/07/04 04:00:49;;;;;;;23.77;9.32;;;;;;;16.37;71.26;100161.50;30850235;28;97398;-76
2022/07/04 04:15:49;;;;;;;9.48;7.97;;;;;;;16.62;70.81;100169.72;30848394;28;97592;-61
2022/07/04 04:30:50;;;;;;;9.50;7.43;;;;;;;17.03;70.79;100156.97;30859154;28;97481;-61
2022/07/04 04:45:50;;;;;;;8.90;7.00;;;;;;;17.50;70.16;100146.00;30860543;28;97058;-61
2022/07/04 05:00:51;;;;;;;9.98;5.40;;;;;;;18.04;69.46;100151.81;30863681;28;96822;-72
2022/07/04 05:15:51;;;;;;;7.00;4.57;;;;;;;18.73;68.04;100152.59;30862996;28;96786;-72
2022/07/04 05:30:52;;;;;;;8.60;4.30;;;;;;;19.58;66.42;100159.00;30861561;28;97833;-70
2022/07/04 05:45:52;;;;;;;7.93;4.35;;;;;;;20.79;64.00;100170.53;30859416;28;96982;-70
2022/07/04 06:00:53;;;;;;;8.10;3.60;;;;;;;22.04;60.66;100171.75;30858193;28;96838;-62
2022/07/04 06:15:53;;;;;;;12.33;4.00;;;;;;;23.30;57.74;100193.88;30856455;28;96646;-64
2022/07/04 06:30:53;;;;;;;6.03;2.58;;;;;;;24.23;54.50;100220.06;30853555;28;109146;-62
2022/07/04 06:45:54;;;;;;;4.32;2.70;;;;;;;25.23;50.82;100202.09;30853407;28;97020;-67
2022/07/04 07:00:54;;;;;;;2.97;2.22;;;;;;;26.06;48.84;100208.56;30849635;28;97627;-63
2022/07/04 07:15:55;;;;;;;5.68;2.60;;;;;;;27.41;45.36;100201.66;30847822;28;96964;-60
2022/07/04 07:30:55;;;;;;;6.22;2.65;;;;;;;28.64;42.18;100199.84;30846749;28;97595;-61
2022/07/04 07:45:56;;;;;;;7.30;3.00;;;;;;;29.60;38.72;100202.75;30844903;28;96788;-61
2022/07/04 08:00:56;;;;;;;6.18;2.78;;;;;;;30.01;37.67;100208.41;30851786;28;96729;-61
2022/07/04 08:15:57;;;;;;;4.72;2.58;;;;;;;30.32;36.57;100196.88;30864160;28;98468;-61
2022/07/04 08:30:58;;;;;;;3.35;2.25;;;;;;;30.12;35.50;100197.25;30856048;28;97445;-62
2022/07/04 08:45:59;;;;;;;4.63;2.63;;;;;;;31.02;33.90;100210.69;30856128;28;96861;-67
2022/07/04 09:01:05;;;;;;;5.37;3.27;;;;;;;30.04;34.51;100234.44;30850169;28;96781;-62
2022/07/04 09:16:06;;;;;;;4.57;3.23;;;;;;;30.40;34.65;100247.59;30845216;28;97260;-66
2022/07/04 09:31:18;;;;;;;4.47;3.10;;;;;;;29.71;35.07;100251.66;30857858;28;97291;-71
2022/07/04 09:46:22;;;;;;;6.17;3.87;;;;;;;30.17;35.04;100254.84;30846412;28;97108;-62
2022/07/04 10:01:22;;;;;;;9.23;3.77;;;;;;;28.97;37.17;100270.47;30861467;28;97292;-66
2022/07/04 10:16:23;;;;;;;8.68;4.65;;;;;;;28.41;39.00;100261.69;30864322;28;96764;-61
2022/07/04 10:31:27;;;;;;;5.40;4.45;;;;;;;28.43;38.58;100269.63;30854610;28;96916;-76
2022/07/04 10:46:36;;;;;;;5.20;4.37;;;;;;;28.87;38.93;100257.69;30855116;28;97470;-61
2022/07/04 11:01:37;;;;;;;5.80;3.73;;;;;;;29.10;38.59;100260.72;30855317;28;96779;-70
2022/07/04 11:16:56;;;;;;;4.63;3.80;;;;;;;29.35;38.38;100234.94;30853527;28;96679;-63
2022/07/04 11:31:56;;;;;;;9.80;3.63;;;;;;;30.34;37.56;100218.56;30853167;28;97401;-61
2022/07/04 11:47:09;;;;;;;4.28;3.33;;;;;;;30.81;36.26;100213.03;30872684;28;97199;-61
2022/07/04 12:02:12;;;;;;;5.63;3.50;;;;;;;31.93;34.10;100208.91;30870736;28;97507;-64
2022/07/04 12:17:19;;;;;;;4.77;3.33;;;;;;;32.03;32.79;100203.16;30869276;28;96661;-61
2022/07/04 12:32:19;;;;;;;;;;;;;;;31.73;34.10;100189.03;30867309;28;98695;-61
2022/07/04 12:47:20;;;;;;;3.38;3.05;;;;;;;32.58;33.24;100190.16;30769040;28;97287;-62
2022/07/04 13:02:20;;;;;;;3.70;2.92;;;;;;;30.84;34.19;100184.94;30821231;28;96852;-62
2022/07/04 13:17:21;;;;;;;6.32;3.30;;;;;;;29.69;37.00;100199.00;30861263;28;97575;-66
2022/07/04 13:32:21;;;;;;;4.88;2.92;;;;;;;29.68;38.07;100202.06;30856419;28;97631;-61
2022/07/04 13:47:21;;;;;;;4.97;2.90;;;;;;;29.60;37.86;100197.25;30855474;28;97180;-68
2022/07/04 14:02:22;;;;;;;8.30;2.85;;;;;;;29.56;37.11;100187.97;30856061;28;103614;-70
2022/07/04 14:17:22;;;;;;;4.70;2.75;;;;;;;29.73;35.82;100159.97;30851248;28;98052;-83
2022/07/04 14:32:23;;;;;;;5.10;2.15;;;;;;;30.54;33.60;100148.69;30853073;28;97075;-61
2022/07/04 14:47:23;;;;;;;3.25;2.30;;;;;;;30.01;33.26;100139.75;30846830;28;97174;-63
2022/07/04 15:02:23;;;;;;;4.05;2.20;;;;;;;29.81;33.37;100142.81;30842654;28;111659;-62
2022/07/04 15:17:24;;;;;;;2.35;2.05;;;;;;;29.66;33.50;100138.41;30848648;28;96857;-62
2022/07/04 15:32:24;;;;;;;4.00;2.08;;;;;;;29.86;34.03;100118.88;30847416;28;97198;-71
2022/07/04 15:47:25;;;;;;;5.82;2.10;;;;;;;29.68;34.10;100127.94;30848305;28;97325;-62
2022/07/04 16:02:25;;;;;;;5.22;2.60;;;;;;;29.68;33.56;100111.47;30835747;28;97338;-62
2022/07/04 16:17:25;;;;;;;2.05;1.80;;;;;;;29.54;32.85;100089.50;30845272;28;97366;-64
2022/07/04 16:32:26;;;;;;;6.05;2.30;;;;;;;29.61;33.24;100089.06;30864768;28;98310;-63
2022/07/04 16:47:26;;;;;;;7.43;2.88;;;;;;;29.61;32.87;100083.59;30866159;28;97165;-62
2022/07/04 17:02:27;;;;;;;2.95;2.20;;;;;;;29.54;32.68;100081.25;30862845;28;96897;-69
2022/07/04 17:17:28;;;;;;;8.93;4.88;;;;;;;28.87;33.20;100104.19;30868049;28;97528;-62
2022/07/04 17:32:28;;;;;;;5.57;3.23;;;;;;;28.39;33.57;100105.03;30859844;28;97526;-63
2022/07/04 17:47:29;;;;;;;6.55;3.30;;;;;;;28.05;34.37;100105.09;30858739;28;96727;-62
2022/07/04 18:02:29;;;;;;;6.03;3.00;;;;;;;27.63;35.36;100140.22;30855959;28;96692;-62
2022/07/04 18:17:29;;;;;;;5.93;3.17;;;;;;;26.98;38.06;100152.91;30856256;28;96759;-77
2022/07/04 18:32:30;;;;;;;5.43;3.40;;;;;;;25.48;43.21;100200.56;30856095;28;97420;-62
2022/07/04 18:47:31;;;;;;;6.93;4.20;;;;;;;24.51;46.97;100166.34;30855611;28;97351;-62
2022/07/04 19:02:31;;;;;;;5.32;4.00;;;;;;;23.51;51.08;100218.56;30855841;28;96720;-62
2022/07/04 19:17:31;;;;;;;4.88;3.03;;;;;;;22.92;53.45;100237.16;30851508;28;102035;-62
2022/07/04 19:32:33;;;;;;;9.38;5.75;;;;;;;22.50;54.86;100247.66;30851716;28;105155;-62
2022/07/04 19:47:34;;;;;;;10.60;4.57;;;;;;;22.10;56.95;100254.84;30851875;28;96707;-62
2022/07/04 20:02:35;;;;;;;8.00;5.50;;;;;;;21.65;58.30;100270.03;30866020;28;97784;-62
2022/07/04 20:17:37;;;;;;;6.63;4.97;;;;;;;21.39;59.76;100276.81;30870870;28;97029;-68
2022/07/04 20:32:39;;;;;;;8.77;5.60;;;;;;;21.12;61.07;100280.06;30878816;28;97613;-62
2022/07/04 20:47:39;;;;;;;7.50;5.53;;;;;;;20.93;62.18;100274.78;30866593;28;97279;-61
2022/07/04 21:02:41;;;;;;;7.77;5.73;;;;;;;20.72;63.26;100265.41;30867768;28;97293;-62
2022/07/04 21:17:41;;;;;;;10.03;6.47;;;;;;;20.58;64.32;100261.22;30872695;28;97425;-62
2022/07/04 21:32:42;;;;;;;7.13;6.00;;;;;;;20.99;66.35;100277.63;30865265;28;96648;-87
2022/07/04 21:47:42;;;;;;;9.70;5.67;;;;;;;21.62;65.11;100279.50;30860750;28;97745;-83
2022/07/04 22:02:42;;;;;;;18.97;6.30;;;;;;;21.68;64.16;100282.28;30862550;28;96735;-63
2022/07/04 22:17:43;;;;;;;5.43;4.67;;;;;;;21.74;63.74;100287.56;30861839;28;97169;-74
2022/07/04 22:32:43;;;;;;;6.70;4.70;;;;;;;21.60;63.34;100306.03;30861686;28;96786;-62
2022/07/04 22:47:44;;;;;;;7.97;4.63;;;;;;;21.38;63.68;100315.81;30860392;28;96640;-62
2022/07/04 23:02:44;;;;;;;6.23;5.00;;;;;;;21.45;63.26;100320.03;30858834;28;97041;-61
2022/07/04 23:17:44;;;;;;;9.30;5.00;;;;;;;21.45;62.85;100309.22;30858265;28;96705;-61
2022/07/04 23:32:45;;;;;;;7.17;4.70;;;;;;;21.17;63.00;100330.81;30865648;28;97356;-62
2022/07/04 23:47:45;;;;;;;6.80;5.37;;;;;;;20.88;63.44;100326.13;30869912;28;96827;-66
